Time;durP1;ratioP1;P1;durP2;ratioP2;P2;SDS_P1;SDS_P2;PMS_P1;PMS_P2;Temp;Humidity;BMP_temperature;BMP_pressure;BME280_temperature;BME280_humidity;BME280_pressure;Samples;Min_cycle;Max_cycle;Signal;HPM_P1;HPM_P2
2021/12/28 00:01:25;;;;;;;3.22;2.83;;;5.90;99.90;;;;;;4999453;28;20112;-67
2021/12/28 00:03:51;;;;;;;3.80;2.33;;;5.90;99.90;;;;;;4994964;28;20381;-67
2021/12/28 00:06:17;;;;;;;3.67;2.70;;;5.90;99.90;;;;;;5000510;28;20045;-67
2021/12/28 00:08:44;;;;;;;4.68;2.60;;;5.80;99.90;;;;;;5008622;28;20544;-67
2021/12/28 00:11:10;;;;;;;3.03;2.50;;;5.80;99.90;;;;;;4997939;28;20113;-67
2021/12/28 00:13:37;;;;;;;5.30;2.72;;;5.80;99.90;;;;;;5014072;28;20492;-67
2021/12/28 00:18:37;;;;;;;5.00;3.03;;;5.80;99.90;;;;;;5012004;28;20040;-67
2021/12/28 00:21:05;;;;;;;3.95;2.55;;;5.80;99.90;;;;;;5005746;28;20366;-67
2021/12/28 00:23:39;;;;;;;4.18;3.05;;;5.80;99.90;;;;;;5008957;28;20029;-67
2021/12/28 00:26:07;;;;;;;2.83;2.63;;;5.80;99.90;;;;;;5010932;28;20148;-67
2021/12/28 00:28:34;;;;;;;4.07;2.55;;;5.80;99.90;;;;;;5009364;28;20034;-67
2021/12/28 00:31:00;;;;;;;3.53;3.22;;;5.80;99.90;;;;;;5006325;28;20045;-67
2021/12/28 00:33:26;;;;;;;4.93;3.20;;;5.80;99.90;;;;;;5016624;28;20481;-67
2021/12/28 00:35:53;;;;;;;3.13;2.63;;;5.70;99.90;;;;;;5012790;28;20363;-67
2021/12/28 00:38:26;;;;;;;3.83;2.63;;;5.70;99.90;;;;;;5008026;28;20042;-67
2021/12/28 00:40:55;;;;;;;3.13;2.45;;;5.70;99.90;;;;;;4997514;28;20069;-68
2021/12/28 00:43:20;;;;;;;;;;;5.70;99.90;;;;;;5009244;28;20033;-67
2021/12/28 00:45:47;;;;;;;3.88;2.38;;;5.70;99.90;;;;;;5010340;28;19913;-67
2021/12/28 00:48:12;;;;;;;5.18;3.03;;;5.60;99.90;;;;;;5017820;28;20032;-67
2021/12/28 00:50:38;;;;;;;3.75;2.55;;;5.60;99.90;;;;;;5001134;28;20038;-67
2021/12/28 00:53:05;;;;;;;3.08;2.35;;;5.50;99.90;;;;;;5012367;28;20033;-67
2021/12/28 00:55:30;;;;;;;2.38;2.17;;;5.50;99.90;;;;;;5010370;28;20041;-67
2021/12/28 00:57:56;;;;;;;3.08;2.78;;;5.50;99.90;;;;;;5004758;28;20140;-67
2021/12/28 01:00:29;;;;;;;3.80;2.45;;;5.50;99.90;;;;;;5007518;28;20040;-67
2021/12/28 01:02:56;;;;;;;4.07;2.47;;;5.50;99.90;;;;;;5006892;28;20069;-67
2021/12/28 01:05:22;;;;;;;3.08;2.30;;;5.50;99.90;;;;;;5002918;28;20065;-67
2021/12/28 01:07:48;;;;;;;3.33;2.50;;;5.40;99.90;;;;;;5005152;28;20132;-67
2021/12/28 01:10:20;;;;;;;3.78;2.53;;;5.40;99.90;;;;;;5005912;28;20092;-67
2021/12/28 01:12:46;;;;;;;3.58;2.33;;;5.50;99.90;;;;;;5008524;28;20044;-67
2021/12/28 01:15:13;;;;;;;3.55;2.90;;;5.40;99.90;;;;;;4998251;28;20037;-67
2021/12/28 01:17:39;;;;;;;3.90;2.80;;;5.30;99.90;;;;;;5007752;28;20046;-67
2021/12/28 01:20:08;;;;;;;5.70;2.88;;;5.30;99.90;;;;;;5004747;28;20030;-67
2021/12/28 01:22:34;;;;;;;3.70;2.35;;;5.20;99.90;;;;;;4998735;28;20540;-67
2021/12/28 01:25:00;;;;;;;4.85;2.83;;;5.20;99.90;;;;;;5004251;28;20032;-67
2021/12/28 01:27:26;;;;;;;3.08;2.40;;;5.10;99.90;;;;;;5003415;28;20381;-68
2021/12/28 01:29:52;;;;;;;4.07;2.67;;;5.10;99.90;;;;;;4990145;28;20053;-67
2021/12/28 01:32:18;;;;;;;3.88;2.70;;;5.10;99.90;;;;;;5008765;28;20056;-67
2021/12/28 01:34:44;;;;;;;3.03;2.75;;;5.10;99.90;;;;;;5005718;28;20511;-67
2021/12/28 01:37:10;;;;;;;4.22;2.72;;;5.00;99.90;;;;;;5004825;28;20100;-67
2021/12/28 01:39:36;;;;;;;2.80;2.35;;;5.00;99.90;;;;;;5004237;28;20036;-67
2021/12/28 01:42:05;;;;;;;5.45;2.67;;;4.90;99.90;;;;;;5016025;28;20729;-67
2021/12/28 01:44:32;;;;;;;3.30;2.30;;;4.90;99.90;;;;;;5005349;28;20464;-67
2021/12/28 01:46:58;;;;;;;2.17;1.90;;;4.90;99.90;;;;;;5009402;28;20030;-67
2021/12/28 01:49:24;;;;;;;25.25;3.70;;;4.90;99.90;;;;;;5012181;28;20076;-67
2021/12/28 01:51:50;;;;;;;4.97;3.00;;;4.70;99.90;;;;;;5003578;28;20432;-67
2021/12/28 01:54:16;;;;;;;4.70;2.88;;;4.60;99.90;;;;;;5012880;28;20101;-67
2021/12/28 01:56:45;;;;;;;4.82;2.63;;;4.50;99.90;;;;;;5003925;28;20074;-67
2021/12/28 01:59:13;;;;;;;4.07;2.78;;;4.50;99.90;;;;;;5002585;28;20040;-67
2021/12/28 02:01:40;;;;;;;5.47;2.90;;;4.30;99.90;;;;;;5002644;28;20160;-67
2021/12/28 02:04:17;;;;;;;2.58;2.20;;;4.10;99.90;;;;;;4997470;28;20120;-67
2021/12/28 02:06:43;;;;;;;4.88;2.53;;;4.00;99.90;;;;;;4997240;28;20040;-67
2021/12/28 02:09:10;;;;;;;4.65;2.85;;;4.10;99.90;;;;;;5004248;28;20049;-67
2021/12/28 02:11:36;;;;;;;4.28;2.90;;;4.10;99.90;;;;;;5006031;28;20041;-67
2021/12/28 02:14:02;;;;;;;4.07;2.50;;;4.20;99.90;;;;;;5010276;28;20037;-67
2021/12/28 02:16:28;;;;;;;2.90;2.40;;;4.10;99.90;;;;;;5006255;28;20665;-67
2021/12/28 02:18:53;;;;;;;4.88;2.85;;;4.20;99.90;;;;;;5001080;28;20042;-67
2021/12/28 02:21:19;;;;;;;4.13;2.78;;;4.20;99.90;;;;;;5005516;28;20605;-67
2021/12/28 02:23:46;;;;;;;5.03;2.72;;;4.00;99.90;;;;;;5009979;28;20128;-67
2021/12/28 02:26:11;;;;;;;6.28;2.55;;;4.10;99.90;;;;;;5000419;28;20113;-67
2021/12/28 02:28:37;;;;;;;2.85;2.22;;;4.00;99.90;;;;;;5009724;28;20117;-67
2021/12/28 02:31:03;;;;;;;36.50;4.60;;;4.00;99.90;;;;;;5002457;28;20034;-67
2021/12/28 02:33:29;;;;;;;3.83;2.40;;;3.90;99.90;;;;;;5002361;28;20040;-67
2021/12/28 02:35:59;;;;;;;2.53;2.33;;;3.80;99.90;;;;;;5000090;28;20053;-67
2021/12/28 02:38:26;;;;;;;14.50;2.70;;;3.80;99.90;;;;;;4992960;28;20705;-67
2021/12/28 02:40:52;;;;;;;2.65;1.70;;;3.70;99.90;;;;;;5003929;28;20441;-67
2021/12/28 02:43:19;;;;;;;6.00;2.78;;;3.60;99.90;;;;;;5003256;28;20080;-67
2021/12/28 02:45:54;;;;;;;5.93;2.58;;;3.50;99.90;;;;;;5002256;28;20034;-67
2021/12/28 02:48:21;;;;;;;5.85;3.17;;;3.40;99.90;;;;;;5009322;28;20037;-67
2021/12/28 02:50:49;;;;;;;3.38;2.38;;;3.30;99.90;;;;;;5012287;28;20030;-67
2021/12/28 02:53:18;;;;;;;2.55;2.30;;;3.40;99.90;;;;;;5003626;28;20041;-67
2021/12/28 02:55:44;;;;;;;;;;;3.30;99.90;;;;;;5000443;28;20561;-67
2021/12/28 02:58:28;;;;;;;2.08;1.52;;;3.40;99.90;;;;;;5000359;28;19925;-67
2021/12/28 03:01:01;;;;;;;3.83;1.40;;;3.30;99.90;;;;;;5004366;28;20160;-67
2021/12/28 03:03:29;;;;;;;2.45;1.67;;;3.30;99.90;;;;;;5002081;28;20496;-66
2021/12/28 03:05:57;;;;;;;1.70;1.60;;;3.10;99.90;;;;;;4994937;28;20033;-67
2021/12/28 03:08:25;;;;;;;1.77;1.67;;;3.10;99.90;;;;;;4996926;28;20119;-67
2021/12/28 03:10:51;;;;;;;1.90;1.80;;;3.10;99.90;;;;;;4999774;28;20030;-67
2021/12/28 03:13:21;;;;;;;62.03;5.35;;;3.10;99.90;;;;;;5013497;28;20113;-67
2021/12/28 03:15:47;;;;;;;47.42;4.75;;;3.00;99.90;;;;;;5005365;28;20036;-67
2021/12/28 03:18:12;;;;;;;53.53;4.20;;;2.80;99.90;;;;;;5004857;28;20046;-66
2021/12/28 03:20:38;;;;;;;30.05;4.50;;;2.70;99.90;;;;;;4999740;28;20045;-67
2021/12/28 03:23:04;;;;;;;8.25;2.90;;;2.60;99.90;;;;;;5000650;28;20027;-67
2021/12/28 03:25:31;;;;;;;7.28;2.45;;;2.60;99.90;;;;;;4994845;28;20088;-67
2021/12/28 03:27:57;;;;;;;3.03;1.80;;;2.70;99.90;;;;;;4999694;28;20062;-67
2021/12/28 03:30:23;;;;;;;2.13;2.00;;;2.70;99.90;;;;;;5007531;28;20033;-67
2021/12/28 03:32:51;;;;;;;6.40;2.22;;;2.80;99.90;;;;;;4999462;28;20469;-67
2021/12/28 03:35:17;;;;;;;2.27;1.77;;;2.80;99.90;;;;;;5002760;28;20354;-67
2021/12/28 03:37:43;;;;;;;1.75;1.60;;;2.80;99.90;;;;;;4998468;28;20054;-67
2021/12/28 03:40:12;;;;;;;2.55;1.65;;;2.80;99.90;;;;;;5001905;28;20034;-67
2021/12/28 03:42:38;;;;;;;1.90;1.70;;;2.90;99.90;;;;;;5010927;28;20034;-67
2021/12/28 03:45:05;;;;;;;3.08;2.10;;;3.00;99.90;;;;;;5005523;28;20313;-67
2021/12/28 03:47:32;;;;;;;2.80;1.90;;;3.00;99.90;;;;;;5013695;28;20377;-67
2021/12/28 03:49:57;;;;;;;2.00;1.83;;;3.00;99.90;;;;;;4997872;28;20070;-67
2021/12/28 03:52:23;;;;;;;21.83;2.35;;;3.00;99.90;;;;;;5006372;28;20113;-66
2021/12/28 03:54:49;;;;;;;3.38;1.60;;;3.00;99.90;;;;;;5002656;28;20141;-67
2021/12/28 03:57:14;;;;;;;1.83;1.65;;;3.00;99.90;;;;;;5007487;28;20814;-66
2021/12/28 03:59:40;;;;;;;1.70;1.60;;;3.00;99.90;;;;;;5006548;28;20042;-66
2021/12/28 04:02:06;;;;;;;2.70;1.63;;;3.00;99.90;;;;;;5001759;28;20388;-67
2021/12/28 04:04:31;;;;;;;2.35;2.13;;;3.00;99.90;;;;;;5005724;28;20392;-67
2021/12/28 04:06:57;;;;;;;1.98;1.88;;;2.90;99.90;;;;;;4999754;28;20064;-67
2021/12/28 04:09:57;;;;;;;2.17;1.63;;;2.90;99.90;;;;;;5003661;28;20037;-67
2021/12/28 04:12:08;;;;;;;44.85;4.53;;;2.90;99.90;;;;;;5002070;28;20088;-67
2021/12/28 04:14:34;;;;;;;3.42;2.22;;;2.80;99.90;;;;;;5001157;28;20910;-67
2021/12/28 04:17:00;;;;;;;1.70;1.60;;;2.90;99.90;;;;;;5002699;28;20026;-67
2021/12/28 04:19:25;;;;;;;1.35;1.25;;;2.90;99.90;;;;;;4999058;28;20065;-67
2021/12/28 04:21:51;;;;;;;1.20;1.20;;;3.00;99.90;;;;;;4997655;28;20045;-67
2021/12/28 04:24:17;;;;;;;9.90;2.35;;;3.00;99.90;;;;;;4999386;28;20105;-66
2021/12/28 04:26:42;;;;;;;5.18;1.88;;;2.80;99.90;;;;;;5002305;28;20053;-67
2021/12/28 04:29:08;;;;;;;2.95;1.38;;;2.80;99.90;;;;;;5005171;28;20034;-67
2021/12/28 04:31:34;;;;;;;7.30;2.15;;;2.90;99.90;;;;;;5004434;28;20115;-67
2021/12/28 04:33:59;;;;;;;2.92;1.80;;;2.80;99.90;;;;;;4999085;28;20044;-67
2021/12/28 04:36:25;;;;;;;198.55;12.57;;;2.90;99.90;;;;;;4998982;28;20053;-67
2021/12/28 04:38:51;;;;;;;1.50;1.30;;;2.80;99.90;;;;;;4999403;28;20103;-67
2021/12/28 04:41:16;;;;;;;1.20;1.20;;;2.70;99.90;;;;;;4999183;28;20427;-67
2021/12/28 04:43:43;;;;;;;101.20;7.30;;;2.80;99.90;;;;;;5008337;28;20041;-66
2021/12/28 04:46:08;;;;;;;79.63;5.38;;;2.70;99.90;;;;;;5001871;28;20052;-66
2021/12/28 04:48:35;;;;;;;40.85;4.97;;;2.50;99.90;;;;;;5010383;28;20798;-67
2021/12/28 04:51:00;;;;;;;101.72;5.68;;;2.40;99.90;;;;;;4998059;28;20784;-67
2021/12/28 04:53:26;;;;;;;128.00;7.35;;;2.30;99.90;;;;;;4998240;28;20034;-67
2021/12/28 04:55:52;;;;;;;10.20;1.80;;;2.20;99.90;;;;;;5004106;28;20045;-67
2021/12/28 04:58:19;;;;;;;3.20;1.40;;;2.10;99.90;;;;;;5010743;28;20041;-66
2021/12/28 05:00:47;;;;;;;1.90;1.40;;;2.10;99.90;;;;;;4997232;28;20121;-66
2021/12/28 05:03:13;;;;;;;3.50;1.40;;;2.20;99.90;;;;;;5002475;28;20042;-67
2021/12/28 05:05:45;;;;;;;2.28;1.70;;;2.20;99.90;;;;;;5008729;28;20075;-67
2021/12/28 05:08:13;;;;;;;1.83;1.65;;;2.20;99.90;;;;;;5006274;28;20049;-67
2021/12/28 05:10:40;;;;;;;1.52;1.42;;;2.30;99.90;;;;;;5003965;28;20076;-67
2021/12/28 05:13:06;;;;;;;2.70;1.20;;;2.30;99.90;;;;;;5013279;28;20137;-67
2021/12/28 05:15:32;;;;;;;2.03;1.67;;;2.30;99.90;;;;;;4998322;28;20358;-66
2021/12/28 05:17:57;;;;;;;1.52;1.42;;;2.30;99.90;;;;;;5000856;28;20063;-66
2021/12/28 05:20:23;;;;;;;5.63;5.03;;;2.30;99.90;;;;;;5001961;28;20136;-66
2021/12/28 05:22:49;;;;;;;6.22;3.00;;;2.40;99.90;;;;;;5004600;28;20453;-66
2021/12/28 05:25:14;;;;;;;1.92;1.83;;;2.40;99.90;;;;;;5009792;28;20030;-66
2021/12/28 05:27:41;;;;;;;1.98;1.75;;;2.40;99.90;;;;;;5011076;28;20048;-66
2021/12/28 05:30:08;;;;;;;4.22;2.10;;;2.30;99.90;;;;;;5008643;28;20476;-67
2021/12/28 05:32:34;;;;;;;2.65;1.67;;;2.20;99.90;;;;;;5000190;28;20091;-67
2021/12/28 05:35:00;;;;;;;1.55;1.45;;;2.20;99.90;;;;;;5006113;28;20032;-67
2021/12/28 05:37:26;;;;;;;2.20;2.00;;;2.20;99.90;;;;;;5006531;28;20131;-67
2021/12/28 05:39:51;;;;;;;1.75;1.65;;;2.30;99.90;;;;;;5011239;28;20056;-66
2021/12/28 05:42:17;;;;;;;1.70;1.60;;;2.30;99.90;;;;;;5012328;28;20033;-66
2021/12/28 05:44:43;;;;;;;3.33;2.05;;;2.30;99.90;;;;;;5017303;28;20401;-67
2021/12/28 05:47:08;;;;;;;7.40;3.08;;;2.30;99.90;;;;;;5009266;28;20037;-66
2021/12/28 05:49:34;;;;;;;1.95;1.80;;;2.30;99.90;;;;;;5004317;28;21287;-67
2021/12/28 05:52:00;;;;;;;1.70;1.60;;;2.30;99.90;;;;;;5005936;28;20033;-67
2021/12/28 05:54:26;;;;;;;3.95;1.63;;;2.30;99.90;;;;;;5004291;28;20034;-67
2021/12/28 05:56:51;;;;;;;2.70;1.83;;;2.40;99.90;;;;;;5004814;28;20127;-67
2021/12/28 05:59:17;;;;;;;1.63;1.50;;;2.50;99.90;;;;;;5005038;28;20449;-67
2021/12/28 06:01:43;;;;;;;3.65;1.73;;;2.50;99.90;;;;;;4995393;28;20453;-66
2021/12/28 06:04:09;;;;;;;1.55;1.45;;;2.60;99.90;;;;;;4983597;28;20030;-67
2021/12/28 06:06:35;;;;;;;5.80;1.80;;;2.60;99.90;;;;;;4983032;28;20088;-66
2021/12/28 06:09:00;;;;;;;1.63;1.50;;;2.60;99.90;;;;;;4980663;28;20040;-67
2021/12/28 06:11:26;;;;;;;1.35;1.27;;;2.70;99.90;;;;;;4975268;28;20058;-67
2021/12/28 06:13:52;;;;;;;2.38;1.60;;;2.70;99.90;;;;;;4987476;28;20034;-66
2021/12/28 06:16:18;;;;;;;1.65;1.55;;;2.70;99.90;;;;;;4985391;28;20034;-66
2021/12/28 06:18:44;;;;;;;1.45;1.35;;;2.70;99.90;;;;;;4984708;28;20500;-67
2021/12/28 06:21:09;;;;;;;6.07;1.90;;;2.60;99.90;;;;;;4977891;28;20176;-67
2021/12/28 06:23:35;;;;;;;1.63;1.50;;;2.60;99.90;;;;;;4986352;28;20608;-67
2021/12/28 06:26:01;;;;;;;3.55;3.25;;;2.70;99.90;;;;;;4978010;28;20038;-67
2021/12/28 06:28:27;;;;;;;7.28;5.18;;;2.70;99.90;;;;;;4985050;28;20031;-67
2021/12/28 06:30:56;;;;;;;6.88;5.75;;;2.70;99.90;;;;;;4979400;28;20045;-67
2021/12/28 06:33:22;;;;;;;4.57;2.83;;;2.80;99.90;;;;;;5006033;28;20065;-67
2021/12/28 06:35:49;;;;;;;4.75;2.85;;;2.70;99.90;;;;;;5004627;28;20104;-67
2021/12/28 06:38:16;;;;;;;3.33;1.98;;;2.80;99.90;;;;;;5008883;28;20586;-67
2021/12/28 06:40:42;;;;;;;2.25;1.60;;;2.70;99.90;;;;;;5003732;28;23157;-67
2021/12/28 06:43:08;;;;;;;5.53;2.50;;;2.80;99.90;;;;;;4995522;28;20041;-67
2021/12/28 06:45:34;;;;;;;3.58;2.00;;;2.80;99.90;;;;;;4986451;28;20044;-67
2021/12/28 06:48:01;;;;;;;3.83;2.28;;;2.80;99.90;;;;;;4987311;28;20042;-66
2021/12/28 06:50:26;;;;;;;2.00;1.80;;;2.80;99.90;;;;;;5002182;28;20035;-66
2021/12/28 06:52:52;;;;;;;2.10;1.90;;;2.90;99.90;;;;;;5007084;28;20041;-66
2021/12/28 06:55:18;;;;;;;4.25;2.90;;;2.90;99.90;;;;;;4996424;28;20204;-66
2021/12/28 06:57:43;;;;;;;4.93;2.75;;;2.90;99.90;;;;;;4994249;28;20141;-66
2021/12/28 07:00:16;;;;;;;8.05;3.28;;;3.00;99.90;;;;;;4995662;28;20037;-67
2021/12/28 07:02:42;;;;;;;10.40;5.55;;;3.00;99.90;;;;;;5002418;28;20046;-67
2021/12/28 07:05:10;;;;;;;6.75;2.38;;;3.10;99.90;;;;;;5000996;28;20042;-67
2021/12/28 07:07:36;;;;;;;6.47;3.03;;;3.10;99.90;;;;;;4999187;28;20073;-67
2021/12/28 07:10:04;;;;;;;4.28;2.42;;;3.20;99.90;;;;;;5007603;28;20034;-67
2021/12/28 07:12:29;;;;;;;5.95;2.15;;;3.10;99.90;;;;;;5011018;28;20026;-67
2021/12/28 07:14:55;;;;;;;7.38;3.78;;;3.20;99.90;;;;;;5004735;28;20044;-67
2021/12/28 07:17:21;;;;;;;5.05;2.67;;;3.20;99.90;;;;;;5010840;28;20041;-67
2021/12/28 07:19:46;;;;;;;6.15;2.53;;;3.30;99.90;;;;;;5003809;28;20044;-67
2021/12/28 07:22:12;;;;;;;2.60;2.00;;;3.30;99.90;;;;;;5015374;28;20029;-67
2021/12/28 07:24:38;;;;;;;2.65;2.30;;;3.20;99.90;;;;;;5002981;28;20751;-68
2021/12/28 07:27:04;;;;;;;3.25;2.10;;;3.30;99.90;;;;;;5010445;28;20044;-67
2021/12/28 07:29:30;;;;;;;4.25;2.15;;;3.30;99.90;;;;;;5008980;28;20505;-67
2021/12/28 07:31:56;;;;;;;4.03;2.30;;;3.30;99.90;;;;;;5001904;28;20495;-67
2021/12/28 07:34:21;;;;;;;4.32;2.20;;;3.30;99.90;;;;;;4997464;28;20029;-67
2021/12/28 07:36:47;;;;;;;3.13;1.77;;;3.30;99.90;;;;;;5004660;28;20066;-67
2021/12/28 07:39:13;;;;;;;5.50;2.88;;;3.30;99.90;;;;;;5004045;28;20082;-67
2021/12/28 07:41:38;;;;;;;6.50;2.45;;;3.30;99.90;;;;;;5008619;28;20040;-67
2021/12/28 07:44:05;;;;;;;3.80;2.25;;;3.40;99.90;;;;;;5009977;28;20026;-67
2021/12/28 07:46:30;;;;;;;3.00;2.00;;;3.40;99.90;;;;;;5010773;28;20083;-67
2021/12/28 07:48:56;;;;;;;5.10;2.78;;;3.40;99.90;;;;;;5010407;28;20033;-67
2021/12/28 07:51:22;;;;;;;4.05;2.10;;;3.50;99.90;;;;;;5005504;28;20041;-66
2021/12/28 07:53:47;;;;;;;4.00;2.10;;;3.50;99.90;;;;;;5012149;28;20030;-67
2021/12/28 07:56:14;;;;;;;3.45;2.58;;;3.50;99.90;;;;;;5006047;28;20034;-67
2021/12/28 07:58:39;;;;;;;3.90;2.47;;;3.50;99.90;;;;;;5003454;28;20030;-67
2021/12/28 08:01:05;;;;;;;7.82;2.63;;;3.40;99.90;;;;;;5004997;28;20088;-68
2021/12/28 08:03:31;;;;;;;3.35;2.10;;;3.40;99.90;;;;;;5010376;28;20858;-67
2021/12/28 08:05:56;;;;;;;9.18;2.67;;;3.50;99.90;;;;;;5008906;28;20066;-67
2021/12/28 08:08:22;;;;;;;5.28;2.90;;;3.50;99.90;;;;;;5008071;28;20036;-67
2021/12/28 08:10:48;;;;;;;5.53;2.65;;;3.60;99.90;;;;;;5005505;28;20396;-67
2021/12/28 08:13:14;;;;;;;5.03;2.70;;;3.60;99.90;;;;;;4997401;28;20484;-67
2021/12/28 08:15:39;;;;;;;3.80;2.03;;;3.70;99.90;;;;;;5007326;28;20038;-66
2021/12/28 08:18:07;;;;;;;2.92;2.00;;;3.70;99.90;;;;;;5002986;28;20038;-66
2021/12/28 08:20:33;;;;;;;3.58;1.77;;;3.80;99.90;;;;;;5000863;28;20084;-66
2021/12/28 08:22:59;;;;;;;5.60;2.65;;;3.80;99.90;;;;;;5011476;28;20117;-68
2021/12/28 08:25:26;;;;;;;6.75;2.70;;;3.80;99.90;;;;;;5004603;28;20073;-67
2021/12/28 08:27:52;;;;;;;5.43;2.40;;;3.90;99.90;;;;;;5009585;28;20060;-67
2021/12/28 08:30:19;;;;;;;4.38;2.00;;;3.80;99.90;;;;;;5021685;28;20029;-67
2021/12/28 08:32:46;;;;;;;6.72;2.42;;;3.90;99.90;;;;;;5000655;28;20081;-67
2021/12/28 08:35:13;;;;;;;3.42;2.55;;;3.90;99.90;;;;;;5009291;28;20116;-67
2021/12/28 08:37:39;;;;;;;2.45;2.28;;;3.90;99.90;;;;;;5007270;28;20057;-67
2021/12/28 08:40:07;;;;;;;3.13;2.03;;;4.00;99.90;;;;;;5013919;28;20034;-67
2021/12/28 08:42:32;;;;;;;3.70;2.70;;;4.00;99.90;;;;;;5009787;28;20033;-67
2021/12/28 08:44:58;;;;;;;4.97;2.60;;;4.00;99.90;;;;;;5012902;28;20033;-67
2021/12/28 08:47:27;;;;;;;15.35;14.07;;;4.00;99.90;;;;;;5012267;28;20087;-67
2021/12/28 08:49:54;;;;;;;4.55;3.70;;;4.00;99.90;;;;;;5008932;28;20029;-67
2021/12/28 08:52:20;;;;;;;3.88;2.30;;;4.10;99.90;;;;;;5015106;28;20095;-67
2021/12/28 08:54:45;;;;;;;3.70;2.00;;;4.00;99.90;;;;;;5013124;28;20119;-67
2021/12/28 08:57:11;;;;;;;2.10;1.70;;;4.10;99.90;;;;;;5008242;28;20033;-68
2021/12/28 08:59:37;;;;;;;5.40;2.97;;;4.20;99.90;;;;;;5018103;28;20029;-67
2021/12/28 09:02:02;;;;;;;1.70;1.60;;;4.20;99.90;;;;;;5017573;28;20060;-67
2021/12/28 09:04:28;;;;;;;1.50;1.33;;;4.40;99.90;;;;;;5000684;28;20100;-68
2021/12/28 09:06:54;;;;;;;4.00;1.60;;;4.50;99.90;;;;;;5006444;28;20042;-67
2021/12/28 09:09:19;;;;;;;1.23;1.13;;;4.70;99.90;;;;;;5002479;28;20041;-67
2021/12/28 09:11:45;;;;;;;1.83;1.10;;;4.80;99.90;;;;;;5005034;28;20038;-67
2021/12/28 09:14:11;;;;;;;3.13;1.23;;;4.90;99.90;;;;;;5011550;28;20038;-67
2021/12/28 09:16:37;;;;;;;3.15;2.33;;;5.00;99.90;;;;;;5011961;28;20037;-68
2021/12/28 09:19:03;;;;;;;1.35;1.25;;;5.00;99.90;;;;;;5012705;28;20106;-67
2021/12/28 09:21:29;;;;;;;1.20;1.13;;;5.10;99.90;;;;;;5014869;28;20789;-67
2021/12/28 09:23:54;;;;;;;1.00;1.00;;;5.30;99.90;;;;;;5007750;28;20084;-67
2021/12/28 09:26:20;;;;;;;2.20;1.13;;;5.30;99.90;;;;;;4999405;28;20396;-67
2021/12/28 09:28:46;;;;;;;1.85;1.23;;;5.30;99.90;;;;;;5019000;28;20116;-67
2021/12/28 09:31:11;;;;;;;1.60;1.50;;;5.40;99.90;;;;;;5005482;28;20404;-68
2021/12/28 09:33:37;;;;;;;1.92;1.35;;;5.50;99.90;;;;;;4990341;28;20035;-67
2021/12/28 09:36:05;;;;;;;1.75;1.25;;;5.50;99.90;;;;;;4985497;28;20058;-67
2021/12/28 09:38:31;;;;;;;1.85;1.20;;;5.50;99.90;;;;;;4991042;28;20042;-67
2021/12/28 09:40:56;;;;;;;2.85;1.50;;;5.50;99.90;;;;;;4986965;28;22793;-67
2021/12/28 09:43:22;;;;;;;4.05;1.65;;;5.60;99.90;;;;;;4988635;28;20122;-67
2021/12/28 09:45:48;;;;;;;4.53;3.08;;;5.60;99.90;;;;;;4985422;28;20101;-67
2021/12/28 09:48:14;;;;;;;11.13;4.20;;;5.60;99.90;;;;;;4997020;28;20084;-67
2021/12/28 09:50:41;;;;;;;4.78;2.42;;;5.70;99.90;;;;;;4986538;28;20030;-67
2021/12/28 09:53:10;;;;;;;2.45;1.85;;;5.70;99.90;;;;;;4971373;28;20035;-67
2021/12/28 09:55:35;;;;;;;2.53;2.33;;;5.80;99.90;;;;;;4996081;28;20030;-67
2021/12/28 09:58:02;;;;;;;1.75;1.65;;;5.80;99.90;;;;;;4986773;28;20089;-67
2021/12/28 10:00:27;;;;;;;4.75;1.70;;;5.90;99.90;;;;;;4994754;28;20034;-68
2021/12/28 10:02:53;;;;;;;3.15;1.70;;;5.90;99.90;;;;;;4987591;28;20041;-68
2021/12/28 10:05:23;;;;;;;2.58;2.00;;;5.90;99.90;;;;;;4994227;28;20126;-67
2021/12/28 10:07:54;;;;;;;1.83;1.60;;;5.90;99.90;;;;;;4989887;28;20105;-68
2021/12/28 10:10:21;;;;;;;2.72;2.40;;;5.90;99.90;;;;;;5017385;28;20478;-67
2021/12/28 10:12:54;;;;;;;2.42;1.75;;;6.00;99.90;;;;;;4989240;28;20031;-67
2021/12/28 10:15:25;;;;;;;2.28;1.63;;;6.00;99.90;;;;;;4984309;28;20030;-68
2021/12/28 10:17:53;;;;;;;3.35;1.60;;;6.10;99.90;;;;;;4990575;28;20093;-68
2021/12/28 10:20:33;;;;;;;1.58;1.48;;;6.20;99.90;;;;;;4987509;28;20046;-68
2021/12/28 10:23:11;;;;;;;1.27;1.25;;;6.30;99.90;;;;;;4980446;28;20038;-68
2021/12/28 10:25:40;;;;;;;2.10;1.58;;;6.30;99.90;;;;;;4996664;28;20052;-68
2021/12/28 10:28:15;;;;;;;1.63;1.40;;;6.40;99.90;;;;;;4994902;28;20054;-68
2021/12/28 10:30:43;;;;;;;1.60;1.50;;;6.40;99.90;;;;;;4987787;28;20073;-68
2021/12/28 10:33:15;;;;;;;2.45;1.40;;;6.50;99.90;;;;;;4993742;28;20052;-68
2021/12/28 10:35:57;;;;;;;1.35;1.10;;;6.50;99.90;;;;;;4985547;28;20034;-68
2021/12/28 10:38:28;;;;;;;1.80;1.30;;;6.50;99.90;;;;;;4991882;28;20042;-67
2021/12/28 10:41:21;;;;;;;3.22;2.53;;;6.60;99.90;;;;;;4983373;28;20034;-68
2021/12/28 10:43:50;;;;;;;3.22;1.40;;;6.60;99.90;;;;;;4990682;28;20038;-67
2021/12/28 10:46:19;;;;;;;1.40;1.00;;;6.70;99.90;;;;;;4997274;28;20104;-67
2021/12/28 10:48:50;;;;;;;1.38;1.20;;;6.70;99.90;;;;;;4989700;28;20034;-68
2021/12/28 10:51:21;;;;;;;1.90;1.30;;;6.80;99.90;;;;;;4989215;28;20034;-68
2021/12/28 10:54:12;;;;;;;1.52;1.10;;;6.80;99.90;;;;;;4987033;28;20038;-68
2021/12/28 10:56:49;;;;;;;1.40;1.10;;;6.90;99.90;;;;;;4988835;28;20031;-68
2021/12/28 10:59:33;;;;;;;1.23;1.13;;;7.00;99.90;;;;;;4994368;28;20137;-68
2021/12/28 11:02:00;;;;;;;2.20;1.13;;;7.00;99.90;;;;;;4975771;28;20038;-68
2021/12/28 11:04:37;;;;;;;3.28;1.23;;;7.10;99.90;;;;;;4985951;28;20109;-68
2021/12/28 11:07:08;;;;;;;1.15;0.90;;;7.00;99.90;;;;;;4979275;28;20026;-68
2021/12/28 11:09:34;;;;;;;1.23;1.13;;;7.10;99.90;;;;;;4997137;28;20039;-68
2021/12/28 11:11:59;;;;;;;1.13;1.00;;;7.20;99.90;;;;;;4988066;28;20087;-68
2021/12/28 11:14:29;;;;;;;0.90;0.90;;;7.30;99.90;;;;;;5006063;28;20030;-68
2021/12/28 11:16:58;;;;;;;0.80;0.80;;;7.30;99.90;;;;;;4979385;28;20157;-68
2021/12/28 11:19:33;;;;;;;1.70;1.02;;;7.30;99.90;;;;;;4997809;28;20445;-68
2021/12/28 11:22:02;;;;;;;1.40;0.70;;;7.40;99.90;;;;;;4982696;28;20034;-68
2021/12/28 11:24:31;;;;;;;;;;;7.40;99.90;;;;;;4997271;28;20041;-68
2021/12/28 11:26:57;;;;;;;1.40;1.05;;;7.50;99.90;;;;;;4990560;28;19917;-68
2021/12/28 11:29:30;;;;;;;2.15;0.70;;;7.60;99.90;;;;;;4998986;28;20042;-68
2021/12/28 11:32:06;;;;;;;1.80;0.75;;;7.60;99.90;;;;;;4992871;28;20097;-68
2021/12/28 11:34:37;;;;;;;2.22;1.00;;;7.70;99.90;;;;;;4979699;28;20037;-68
2021/12/28 11:37:17;;;;;;;0.50;0.50;;;7.80;99.90;;;;;;4992907;28;20059;-68
2021/12/28 11:39:46;;;;;;;0.82;0.73;;;8.00;99.90;;;;;;4982988;28;20039;-68
2021/12/28 11:42:14;;;;;;;0.60;0.60;;;8.00;99.90;;;;;;4984486;28;20038;-68
2021/12/28 11:44:41;;;;;;;0.85;0.80;;;8.00;99.90;;;;;;4999009;28;20149;-68
2021/12/28 11:47:09;;;;;;;0.85;0.70;;;8.00;99.90;;;;;;4987287;28;20042;-68
2021/12/28 11:49:36;;;;;;;0.50;0.50;;;8.00;99.90;;;;;;4993503;28;20092;-68
2021/12/28 11:52:05;;;;;;;0.80;0.80;;;8.00;99.90;;;;;;4991627;28;20117;-68
2021/12/28 11:54:33;;;;;;;0.77;0.77;;;8.20;99.90;;;;;;4980314;28;20757;-68
2021/12/28 11:57:11;;;;;;;1.30;0.60;;;8.20;99.90;;;;;;4990181;28;20117;-67
2021/12/28 11:59:39;;;;;;;3.30;0.90;;;8.20;99.90;;;;;;5001178;28;20390;-67
2021/12/28 12:02:11;;;;;;;1.83;1.10;;;8.40;99.90;;;;;;4994551;28;20480;-67
2021/12/28 12:04:42;;;;;;;0.60;0.60;;;8.40;99.90;;;;;;4986442;28;20030;-67
2021/12/28 12:07:14;;;;;;;1.63;0.70;;;8.40;99.90;;;;;;4994640;28;20483;-68
2021/12/28 12:09:49;;;;;;;0.60;0.60;;;8.50;99.90;;;;;;4977146;28;20069;-67
2021/12/28 12:12:18;;;;;;;0.80;0.80;;;8.50;99.90;;;;;;4990404;28;20033;-67
2021/12/28 12:14:50;;;;;;;0.77;0.77;;;8.40;99.90;;;;;;4993578;28;20026;-69
2021/12/28 12:17:28;;;;;;;1.45;0.90;;;8.40;99.90;;;;;;4989784;28;20230;-67
2021/12/28 12:20:04;;;;;;;1.42;0.75;;;8.40;99.90;;;;;;4983639;28;20101;-67
2021/12/28 12:22:30;;;;;;;0.63;0.63;;;8.40;99.90;;;;;;4991461;28;20050;-68
2021/12/28 12:24:57;;;;;;;2.50;0.80;;;8.30;99.90;;;;;;4990300;28;20038;-68
2021/12/28 12:27:49;;;;;;;1.38;1.27;;;8.40;99.90;;;;;;4988274;28;20113;-68
2021/12/28 12:30:18;;;;;;;1.42;0.77;;;8.40;99.90;;;;;;4998412;28;20029;-67
2021/12/28 12:32:58;;;;;;;1.02;0.80;;;8.50;99.90;;;;;;4988045;28;20089;-67
2021/12/28 12:35:32;;;;;;;0.80;0.80;;;8.50;99.90;;;;;;4990709;28;20034;-68
2021/12/28 12:38:24;;;;;;;1.50;0.90;;;8.60;99.90;;;;;;4988306;28;20157;-68
2021/12/28 12:40:58;;;;;;;0.77;0.77;;;8.60;99.90;;;;;;4982939;28;20145;-68
2021/12/28 12:43:26;;;;;;;2.78;1.13;;;8.60;99.90;;;;;;4975246;28;20037;-68
2021/12/28 12:45:52;;;;;;;0.75;0.75;;;8.70;99.90;;;;;;4985964;28;20085;-68
2021/12/28 12:48:52;;;;;;;0.80;0.80;;;8.70;99.90;;;;;;5000832;28;20081;-68
2021/12/28 12:51:21;;;;;;;1.48;0.88;;;8.70;99.90;;;;;;4988434;28;20053;-67
2021/12/28 12:54:06;;;;;;;0.63;0.63;;;8.70;99.90;;;;;;4996073;28;20065;-68
2021/12/28 12:56:56;;;;;;;2.17;1.77;;;8.80;99.90;;;;;;4982362;28;20410;-68
2021/12/28 12:59:24;;;;;;;2.70;1.90;;;8.80;99.90;;;;;;4987263;28;20054;-68
2021/12/28 13:01:52;;;;;;;2.67;1.77;;;8.80;99.90;;;;;;4986696;28;20504;-68
2021/12/28 13:04:24;;;;;;;0.90;0.90;;;8.90;99.90;;;;;;4986279;28;20037;-68